Time;durP1;ratioP1;P1;durP2;ratioP2;P2;SDS_P1;SDS_P2;PMS_P1;PMS_P2;Temp;Humidity;BMP_temperature;BMP_pressure;BME280_temperature;BME280_humidity;BME280_pressure;Samples;Min_cycle;Max_cycle;Signal;HPM_P1;HPM_P2
2021/10/19 00:01:19;;;;;;;6.82;5.50;;;21.90;52.90;;;;;;5017723;28;88349;-76
2021/10/19 00:03:47;;;;;;;8.40;6.55;;;21.90;53.00;;;;;;5016092;28;92878;-76
2021/10/19 00:06:14;;;;;;;7.95;6.50;;;21.90;53.20;;;;;;5017366;28;88107;-76
2021/10/19 00:08:41;;;;;;;8.43;6.32;;;21.90;53.20;;;;;;5017989;28;87936;-78
2021/10/19 00:11:09;;;;;;;8.05;7.22;;;21.90;53.10;;;;;;5017328;28;88433;-78
2021/10/19 00:13:37;;;;;;;9.57;7.15;;;21.90;53.00;;;;;;5016254;28;89741;-78
2021/10/19 00:16:05;;;;;;;9.98;7.38;;;21.80;53.00;;;;;;5049651;27;89338;-78
2021/10/19 00:18:32;;;;;;;9.60;7.43;;;21.90;53.00;;;;;;5017768;28;92615;-78
2021/10/19 00:20:59;;;;;;;9.90;7.68;;;21.80;52.90;;;;;;5017955;28;88340;-78
2021/10/19 00:23:26;;;;;;;8.73;6.85;;;21.80;52.90;;;;;;4999826;28;88247;-78
2021/10/19 00:25:53;;;;;;;8.25;6.88;;;21.90;52.80;;;;;;5017631;28;88242;-78
2021/10/19 00:28:21;;;;;;;9.95;7.35;;;21.90;53.00;;;;;;4999258;28;91962;-78
2021/10/19 00:30:47;;;;;;;7.25;6.28;;;21.80;52.80;;;;;;5016146;28;92287;-78
2021/10/19 00:33:15;;;;;;;8.38;7.32;;;21.80;52.80;;;;;;4999191;28;91828;-78
2021/10/19 00:35:42;;;;;;;9.07;7.38;;;21.80;53.00;;;;;;5017347;28;88373;-78
2021/10/19 00:38:09;;;;;;;10.90;6.20;;;21.80;53.00;;;;;;5015873;28;93443;-78
2021/10/19 00:40:36;;;;;;;7.53;6.25;;;21.80;53.20;;;;;;4999069;28;95645;-77
2021/10/19 00:43:04;;;;;;;10.60;7.53;;;21.80;53.50;;;;;;5017093;28;87939;-78
2021/10/19 00:45:32;;;;;;;8.13;6.47;;;21.80;53.50;;;;;;5016695;28;87723;-77
2021/10/19 00:47:59;;;;;;;10.18;7.30;;;21.80;53.60;;;;;;5017378;28;87994;-77
2021/10/19 00:50:26;;;;;;;9.75;7.22;;;21.80;53.60;;;;;;5017537;28;87936;-77
2021/10/19 00:52:55;;;;;;;9.77;7.30;;;21.80;53.60;;;;;;5015186;28;88859;-77
2021/10/19 00:55:23;;;;;;;12.85;7.82;;;21.80;53.60;;;;;;5016946;28;90902;-78
2021/10/19 00:57:50;;;;;;;9.32;7.40;;;21.80;53.60;;;;;;5015720;28;88720;-77
2021/10/19 01:00:17;;;;;;;10.02;7.70;;;21.80;53.50;;;;;;5015714;28;90584;-78
2021/10/19 01:02:44;;;;;;;10.73;7.93;;;21.80;53.50;;;;;;5016010;28;88484;-77
2021/10/19 01:05:12;;;;;;;8.23;6.43;;;21.80;53.40;;;;;;5014994;28;108641;-78
2021/10/19 01:07:41;;;;;;;6.43;5.63;;;21.80;53.60;;;;;;5016923;28;88585;-78
2021/10/19 01:10:09;;;;;;;7.57;6.38;;;21.80;53.80;;;;;;5016919;28;88409;-78
2021/10/19 01:12:38;;;;;;;8.98;6.38;;;21.80;53.80;;;;;;5016917;28;88360;-77
2021/10/19 01:15:10;;;;;;;8.55;6.85;;;21.80;53.70;;;;;;5016433;28;94653;-78
2021/10/19 01:17:42;;;;;;;10.63;7.30;;;21.80;53.80;;;;;;5015540;28;92432;-78
2021/10/19 01:20:22;;;;;;;8.65;7.63;;;21.80;53.60;;;;;;5016089;28;95601;-78
2021/10/19 01:22:49;;;;;;;8.73;7.10;;;21.80;53.60;;;;;;5016633;28;87952;-77
2021/10/19 01:25:19;;;;;;;8.93;6.43;;;21.80;53.80;;;;;;5016660;28;88567;-78
2021/10/19 01:27:48;;;;;;;9.93;7.13;;;21.80;53.90;;;;;;5015320;28;88765;-78
2021/10/19 01:30:15;;;;;;;11.05;8.05;;;21.80;53.90;;;;;;5014957;28;89122;-77
2021/10/19 01:32:43;;;;;;;9.02;6.10;;;21.80;54.70;;;;;;5017165;28;87988;-78
2021/10/19 01:35:11;;;;;;;9.40;7.38;;;21.80;53.90;;;;;;5016232;28;88752;-77
2021/10/19 01:37:41;;;;;;;9.68;7.00;;;21.80;54.00;;;;;;5016059;28;89072;-78
2021/10/19 01:40:14;;;;;;;8.88;6.78;;;21.80;54.00;;;;;;5016382;28;88976;-77
2021/10/19 01:42:42;;;;;;;9.07;7.22;;;21.80;53.90;;;;;;5016388;28;88747;-78
2021/10/19 01:45:18;;;;;;;7.75;6.35;;;21.80;54.00;;;;;;4998169;28;90839;-77
2021/10/19 01:47:45;;;;;;;6.93;5.68;;;21.80;53.90;;;;;;5015413;28;88054;-77
2021/10/19 01:50:14;;;;;;;8.95;7.20;;;21.80;54.10;;;;;;5016214;28;88445;-78
2021/10/19 01:52:43;;;;;;;9.73;8.07;;;21.80;54.20;;;;;;5016858;28;88331;-78
2021/10/19 01:55:10;;;;;;;12.77;8.68;;;21.80;54.10;;;;;;4997987;28;90831;-78
2021/10/19 01:57:38;;;;;;;10.85;7.70;;;21.80;53.90;;;;;;5016650;28;88291;-78
2021/10/19 02:00:07;;;;;;;9.90;7.82;;;21.80;53.90;;;;;;5015890;28;98371;-78
2021/10/19 02:02:38;;;;;;;13.48;7.93;;;21.80;54.00;;;;;;5015197;28;88481;-78
2021/10/19 02:05:07;;;;;;;10.85;6.80;;;21.70;53.90;;;;;;5015266;28;88047;-77
2021/10/19 02:07:34;;;;;;;7.68;6.32;;;21.80;53.90;;;;;;5013812;28;89890;-77
2021/10/19 02:10:03;;;;;;;9.43;6.68;;;21.80;54.10;;;;;;5011810;28;89054;-77
2021/10/19 02:12:30;;;;;;;7.53;6.15;;;21.80;54.10;;;;;;5013817;28;90140;-77
2021/10/19 02:14:57;;;;;;;9.65;6.90;;;21.70;54.20;;;;;;5015822;28;88301;-77
2021/10/19 02:17:24;;;;;;;11.98;6.35;;;21.80;54.30;;;;;;5013982;28;92136;-77
2021/10/19 02:19:51;;;;;;;9.85;7.03;;;21.80;54.40;;;;;;5014157;28;88506;-77
2021/10/19 02:22:18;;;;;;;6.90;5.88;;;21.80;54.40;;;;;;5015436;28;89090;-77
2021/10/19 02:24:45;;;;;;;9.07;5.97;;;21.80;54.20;;;;;;5016576;28;104461;-77
2021/10/19 02:27:12;;;;;;;8.13;6.55;;;21.80;54.30;;;;;;5016543;28;88942;-77
2021/10/19 02:29:39;;;;;;;8.75;6.13;;;21.80;54.40;;;;;;5014972;28;89818;-77
2021/10/19 02:32:06;;;;;;;11.18;7.47;;;21.80;54.40;;;;;;5014358;28;89166;-77
2021/10/19 02:34:33;;;;;;;9.10;7.07;;;21.80;54.40;;;;;;5016401;28;87903;-78
2021/10/19 02:37:00;;;;;;;7.00;5.60;;;21.80;54.30;;;;;;5015093;28;88842;-78
2021/10/19 02:39:27;;;;;;;8.40;7.15;;;21.80;54.40;;;;;;5016210;28;89511;-77
2021/10/19 02:41:54;;;;;;;8.27;6.65;;;21.70;54.40;;;;;;5015903;28;88054;-78
2021/10/19 02:44:21;;;;;;;6.72;5.60;;;21.70;54.40;;;;;;5015489;28;88129;-78
2021/10/19 02:46:48;;;;;;;7.65;6.45;;;21.80;54.50;;;;;;5014618;28;88733;-78
2021/10/19 02:49:15;;;;;;;7.68;6.60;;;21.80;54.50;;;;;;5014584;28;88615;-78
2021/10/19 02:51:42;;;;;;;8.05;6.55;;;21.80;54.40;;;;;;5013936;28;95885;-77
2021/10/19 02:54:10;;;;;;;9.50;7.22;;;21.80;54.40;;;;;;5013278;28;89121;-77
2021/10/19 02:56:39;;;;;;;8.57;6.53;;;21.80;54.50;;;;;;5013631;28;89633;-78
2021/10/19 02:59:06;;;;;;;8.55;6.60;;;21.80;54.40;;;;;;5014352;28;89723;-78
2021/10/19 03:01:33;;;;;;;8.20;6.53;;;21.70;54.50;;;;;;5017918;28;88146;-77
2021/10/19 03:04:00;;;;;;;8.77;6.65;;;21.80;54.60;;;;;;5018909;28;88324;-77
2021/10/19 03:06:27;;;;;;;9.07;6.10;;;21.80;54.60;;;;;;5000538;28;88874;-78
2021/10/19 03:08:54;;;;;;;8.30;7.05;;;21.80;54.50;;;;;;5012331;28;88723;-78
2021/10/19 03:11:21;;;;;;;10.57;6.20;;;21.80;54.60;;;;;;5030042;28;112129;-77
2021/10/19 03:13:48;;;;;;;8.70;5.50;;;21.80;54.50;;;;;;5003809;28;87899;-78
2021/10/19 03:16:16;;;;;;;8.95;7.00;;;21.80;54.60;;;;;;5018937;28;88946;-77
2021/10/19 03:18:43;;;;;;;7.53;5.75;;;21.80;54.50;;;;;;5016915;28;90676;-78
2021/10/19 03:21:10;;;;;;;8.05;6.15;;;21.80;54.70;;;;;;5017756;28;88807;-78
2021/10/19 03:23:37;;;;;;;5.70;5.05;;;21.70;54.70;;;;;;5017817;28;87938;-78
2021/10/19 03:26:04;;;;;;;10.13;7.47;;;21.80;54.70;;;;;;5016917;28;88076;-77
2021/10/19 03:28:31;;;;;;;6.30;5.60;;;21.80;54.70;;;;;;5017819;28;88916;-78
2021/10/19 03:30:58;;;;;;;8.52;7.10;;;21.80;54.70;;;;;;5018574;28;88369;-78
2021/10/19 03:33:26;;;;;;;10.00;6.47;;;21.80;54.80;;;;;;4999989;28;100303;-78
2021/10/19 03:35:53;;;;;;;9.45;6.50;;;21.80;54.70;;;;;;5018364;28;88664;-78
2021/10/19 03:38:20;;;;;;;11.63;7.70;;;21.70;54.70;;;;;;5018417;28;88422;-78
2021/10/19 03:40:47;;;;;;;9.45;6.25;;;21.70;54.60;;;;;;5016662;28;91853;-77
2021/10/19 03:43:14;;;;;;;9.38;7.55;;;21.70;54.40;;;;;;5018594;28;88091;-78
2021/10/19 03:45:41;;;;;;;6.30;5.40;;;21.80;54.60;;;;;;5000033;28;89964;-76
2021/10/19 03:48:08;;;;;;;7.75;6.55;;;21.70;54.60;;;;;;5016982;28;89455;-79
2021/10/19 03:50:35;;;;;;;9.05;7.32;;;21.70;54.80;;;;;;5033366;27;88344;-76
2021/10/19 03:53:02;;;;;;;11.45;8.00;;;21.80;54.90;;;;;;5018116;28;88108;-78
2021/10/19 03:55:29;;;;;;;10.80;8.15;;;21.80;54.80;;;;;;5017924;28;89300;-79
2021/10/19 03:57:56;;;;;;;8.32;6.40;;;21.80;54.80;;;;;;5000188;28;89092;-76
2021/10/19 04:00:23;;;;;;;10.15;7.75;;;21.70;54.90;;;;;;5016823;28;88001;-79
2021/10/19 04:02:50;;;;;;;7.95;6.30;;;21.80;55.00;;;;;;5018554;28;88073;-79
2021/10/19 04:05:17;;;;;;;7.57;5.53;;;21.70;55.00;;;;;;5018078;28;88788;-75
2021/10/19 04:07:46;;;;;;;7.85;6.05;;;21.70;55.20;;;;;;5016759;28;88436;-76
2021/10/19 04:10:15;;;;;;;9.20;7.57;;;21.70;55.20;;;;;;5017556;28;89185;-77
2021/10/19 04:12:42;;;;;;;10.40;6.90;;;21.70;55.20;;;;;;5017589;28;88423;-77
2021/10/19 04:15:09;;;;;;;9.02;6.50;;;21.70;55.20;;;;;;5016229;28;88753;-77
2021/10/19 04:17:36;;;;;;;9.35;6.00;;;21.80;55.30;;;;;;5016615;28;88442;-77
2021/10/19 04:20:05;;;;;;;8.73;6.85;;;21.80;55.40;;;;;;5015973;28;89296;-77
2021/10/19 04:22:32;;;;;;;12.77;8.52;;;21.80;55.40;;;;;;5017386;28;95983;-77
2021/10/19 04:24:59;;;;;;;7.30;5.32;;;21.80;55.40;;;;;;5017634;28;88655;-77
2021/10/19 04:27:26;;;;;;;9.60;7.18;;;21.70;55.40;;;;;;5017344;28;91905;-77
2021/10/19 04:29:53;;;;;;;7.47;6.20;;;21.70;55.40;;;;;;5017731;28;88004;-77
2021/10/19 04:32:21;;;;;;;8.35;6.32;;;21.70;55.30;;;;;;4999413;28;88398;-78
2021/10/19 04:34:48;;;;;;;10.85;8.23;;;21.70;55.40;;;;;;5015998;28;89523;-77
2021/10/19 04:37:14;;;;;;;10.10;7.35;;;21.70;55.40;;;;;;5017025;28;89136;-77
2021/10/19 04:39:41;;;;;;;11.55;7.82;;;21.70;55.40;;;;;;5016338;28;88149;-77
2021/10/19 04:42:08;;;;;;;7.75;6.32;;;21.70;55.40;;;;;;5017409;28;88050;-78
2021/10/19 04:44:35;;;;;;;11.48;8.70;;;21.70;55.30;;;;;;5016247;28;88782;-77
2021/10/19 04:47:03;;;;;;;7.22;6.13;;;21.70;55.20;;;;;;5017138;28;88985;-78
2021/10/19 04:49:30;;;;;;;8.15;6.78;;;21.70;55.30;;;;;;4999254;28;92870;-77
2021/10/19 04:51:57;;;;;;;13.20;7.53;;;21.70;55.30;;;;;;4999766;28;88417;-78
2021/10/19 04:54:24;;;;;;;9.90;7.28;;;21.70;55.30;;;;;;5016012;28;88135;-77
2021/10/19 04:56:51;;;;;;;10.70;8.02;;;21.70;55.30;;;;;;5017129;28;88982;-77
2021/10/19 04:59:18;;;;;;;9.75;6.93;;;21.70;55.30;;;;;;5015059;28;88747;-77
2021/10/19 05:01:44;;;;;;;8.13;5.90;;;21.70;55.30;;;;;;5015428;28;92729;-77
2021/10/19 05:04:16;;;;;;;8.27;5.85;;;21.70;55.50;;;;;;5014590;28;91614;-77
2021/10/19 05:06:43;;;;;;;9.52;6.05;;;21.70;55.60;;;;;;5016417;28;88453;-77
2021/10/19 05:09:12;;;;;;;8.98;6.70;;;21.70;55.70;;;;;;5016835;28;87908;-77
2021/10/19 05:11:39;;;;;;;10.38;7.70;;;21.70;55.80;;;;;;4999307;28;90754;-77
2021/10/19 05:14:06;;;;;;;8.80;6.65;;;21.70;55.80;;;;;;5015689;28;88672;-77
2021/10/19 05:16:33;;;;;;;9.95;7.82;;;21.80;55.60;;;;;;5016475;28;88409;-76
2021/10/19 05:19:00;;;;;;;10.73;7.57;;;21.80;55.50;;;;;;5017039;28;88371;-77
2021/10/19 05:21:28;;;;;;;12.77;7.30;;;21.90;55.20;;;;;;5015178;28;89579;-77
2021/10/19 05:23:55;;;;;;;10.00;8.00;;;21.90;55.00;;;;;;4997526;28;92242;-77
2021/10/19 05:26:22;;;;;;;8.27;6.95;;;22.00;55.00;;;;;;5015315;28;89317;-77
2021/10/19 05:28:49;;;;;;;10.57;8.32;;;22.00;55.00;;;;;;5016070;28;97619;-77
2021/10/19 05:31:16;;;;;;;9.85;7.38;;;22.00;54.90;;;;;;5016657;28;88618;-77
2021/10/19 05:33:43;;;;;;;9.52;7.50;;;22.00;54.90;;;;;;5015309;28;90487;-78
2021/10/19 05:36:10;;;;;;;8.70;6.80;;;22.10;55.00;;;;;;5015706;28;88440;-76
2021/10/19 05:38:37;;;;;;;13.35;8.45;;;22.10;54.90;;;;;;5015487;28;88045;-76
2021/10/19 05:41:04;;;;;;;12.40;6.72;;;22.10;54.80;;;;;;5015715;28;87659;-76
2021/10/19 05:43:32;;;;;;;10.50;6.90;;;22.10;54.90;;;;;;5015322;28;88682;-76
2021/10/19 05:45:59;;;;;;;10.88;7.65;;;22.10;54.90;;;;;;5014878;28;88479;-76
2021/10/19 05:48:26;;;;;;;8.80;6.68;;;22.10;54.90;;;;;;5014774;28;89296;-77
2021/10/19 05:50:53;;;;;;;7.90;6.20;;;22.20;55.00;;;;;;4977064;28;90461;-77
2021/10/19 05:53:20;;;;;;;8.18;6.50;;;22.20;55.00;;;;;;5014480;28;89114;-76
2021/10/19 05:55:47;;;;;;;8.05;5.68;;;22.20;55.00;;;;;;5015976;28;97229;-77
2021/10/19 05:58:14;;;;;;;9.98;5.97;;;22.20;55.10;;;;;;5016019;28;88026;-77
2021/10/19 06:00:51;;;;;;;7.88;6.43;;;22.20;55.20;;;;;;5010932;28;88055;-77
2021/10/19 06:03:19;;;;;;;8.07;5.97;;;22.20;55.10;;;;;;5012409;28;88990;-77
2021/10/19 06:05:46;;;;;;;4.20;3.88;;;22.20;55.10;;;;;;5005235;28;92122;-76
2021/10/19 06:08:13;;;;;;;6.88;6.00;;;22.20;55.20;;;;;;5005470;28;91526;-77
2021/10/19 06:10:40;;;;;;;11.55;7.95;;;22.30;55.30;;;;;;5008073;28;90505;-77
2021/10/19 06:13:07;;;;;;;9.55;7.40;;;22.30;55.20;;;;;;5003990;28;92050;-77
2021/10/19 06:15:34;;;;;;;8.10;6.68;;;22.30;55.10;;;;;;5015499;28;89021;-79
2021/10/19 06:18:01;;;;;;;9.40;6.60;;;22.30;55.10;;;;;;5009941;28;88138;-77
2021/10/19 06:20:28;;;;;;;6.72;5.85;;;22.30;55.20;;;;;;5036148;27;105066;-77
2021/10/19 06:22:55;;;;;;;9.25;6.72;;;22.30;55.50;;;;;;5037897;27;88767;-78
2021/10/19 06:25:22;;;;;;;8.55;5.93;;;22.30;55.40;;;;;;5013289;28;88792;-78
2021/10/19 06:27:49;;;;;;;7.88;6.55;;;22.30;55.50;;;;;;5006644;28;88769;-78
2021/10/19 06:30:17;;;;;;;10.48;7.43;;;22.30;56.20;;;;;;5012592;28;89898;-78
2021/10/19 06:32:44;;;;;;;9.65;5.55;;;22.30;55.40;;;;;;5012228;28;88658;-78
2021/10/19 06:35:11;;;;;;;7.90;6.10;;;22.30;55.50;;;;;;5011784;28;88698;-78
2021/10/19 06:37:38;;;;;;;11.20;6.93;;;22.30;55.50;;;;;;5012326;28;88830;-78
2021/10/19 06:40:07;;;;;;;7.45;6.50;;;22.40;56.30;;;;;;5004379;28;88250;-78
2021/10/19 06:42:34;;;;;;;7.00;5.72;;;22.30;55.40;;;;;;5007240;28;106769;-78
2021/10/19 06:45:04;;;;;;;10.75;7.68;;;22.40;55.60;;;;;;5000738;28;89763;-77
2021/10/19 06:47:32;;;;;;;9.75;7.18;;;22.40;55.60;;;;;;5001920;28;89373;-78
2021/10/19 06:50:00;;;;;;;7.75;6.10;;;22.40;55.60;;;;;;5018475;28;88161;-78
2021/10/19 06:52:31;;;;;;;9.73;6.55;;;22.40;55.60;;;;;;5018007;28;89066;-78
2021/10/19 06:54:59;;;;;;;7.60;6.43;;;22.40;55.70;;;;;;5018743;28;90567;-78
2021/10/19 06:57:30;;;;;;;7.03;6.30;;;22.40;55.70;;;;;;5016820;28;89358;-78
2021/10/19 07:00:03;;;;;;;14.75;10.77;;;22.40;55.70;;;;;;5014278;28;88580;-78
2021/10/19 07:02:30;;;;;;;9.73;8.68;;;22.40;55.70;;;;;;5003844;28;89884;-78
2021/10/19 07:04:58;;;;;;;9.18;6.75;;;22.40;55.80;;;;;;5016951;28;88253;-78
2021/10/19 07:07:25;;;;;;;9.55;7.78;;;22.40;55.80;;;;;;5015809;28;88091;-78
2021/10/19 07:09:52;;;;;;;8.18;6.60;;;22.40;55.70;;;;;;5015034;28;101186;-78
2021/10/19 07:12:18;;;;;;;9.15;6.60;;;22.40;55.70;;;;;;4996777;28;90418;-78
2021/10/19 07:14:47;;;;;;;8.77;7.93;;;22.40;55.70;;;;;;5015479;28;89368;-78
2021/10/19 07:17:14;;;;;;;9.90;8.75;;;22.40;55.70;;;;;;5013565;28;88366;-78
2021/10/19 07:19:41;;;;;;;10.13;7.18;;;22.50;55.70;;;;;;5017320;28;90227;-77
2021/10/19 07:22:10;;;;;;;6.97;5.82;;;22.50;55.60;;;;;;5017667;28;88577;-78
2021/10/19 07:24:37;;;;;;;10.45;8.27;;;22.50;55.60;;;;;;5017544;28;88466;-77
2021/10/19 07:27:04;;;;;;;8.75;6.78;;;22.50;55.60;;;;;;5017628;28;88748;-78
2021/10/19 07:29:31;;;;;;;8.65;6.45;;;22.50;55.60;;;;;;5016838;28;90423;-78
2021/10/19 07:31:58;;;;;;;7.63;6.43;;;22.50;55.50;;;;;;5015985;28;106871;-78
2021/10/19 07:34:25;;;;;;;7.47;6.53;;;22.50;55.50;;;;;;5018338;28;88464;-78
2021/10/19 07:36:53;;;;;;;7.38;6.30;;;22.50;55.50;;;;;;5016916;28;88449;-78
2021/10/19 07:39:20;;;;;;;8.27;6.57;;;22.50;55.50;;;;;;5017700;28;90809;-78
2021/10/19 07:41:47;;;;;;;8.13;6.60;;;22.50;55.40;;;;;;5018539;28;88736;-77
2021/10/19 07:44:14;;;;;;;7.20;6.00;;;22.50;55.40;;;;;;4997286;28;90811;-77
2021/10/19 07:46:41;;;;;;;9.45;7.20;;;22.50;56.10;;;;;;5003281;28;88278;-77
2021/10/19 07:49:08;;;;;;;8.70;7.07;;;22.50;55.40;;;;;;5017860;28;88376;-78
2021/10/19 07:51:36;;;;;;;8.18;5.95;;;22.50;55.30;;;;;;5017913;28;88783;-78
2021/10/19 07:54:03;;;;;;;6.93;6.22;;;22.50;55.30;;;;;;5015807;28;102987;-77
2021/10/19 07:56:30;;;;;;;7.70;6.07;;;22.50;55.30;;;;;;5017883;28;88037;-78
2021/10/19 07:58:58;;;;;;;6.63;5.53;;;22.50;55.30;;;;;;5016813;28;88496;-77
2021/10/19 08:01:25;;;;;;;7.35;6.55;;;22.50;55.30;;;;;;5017528;28;88939;-77
2021/10/19 08:03:52;;;;;;;8.25;5.18;;;22.50;55.30;;;;;;5017142;28;88451;-77
2021/10/19 08:06:19;;;;;;;8.88;7.60;;;22.60;55.30;;;;;;5016610;28;88097;-78
2021/10/19 08:08:46;;;;;;;2.40;2.13;;;22.50;56.00;;;;;;5017960;28;87708;-78
2021/10/19 08:11:13;;;;;;;4.35;4.00;;;22.60;55.20;;;;;;5017335;28;88691;-78
2021/10/19 08:13:40;;;;;;;5.53;5.03;;;22.60;55.20;;;;;;4999987;28;100484;-78
2021/10/19 08:16:07;;;;;;;8.07;6.65;;;22.60;55.20;;;;;;5017254;28;88772;-77
2021/10/19 08:18:34;;;;;;;3.78;2.97;;;22.60;55.20;;;;;;4999068;28;88115;-78
2021/10/19 08:21:07;;;;;;;8.23;6.20;;;22.60;55.10;;;;;;5016946;28;88811;-78
2021/10/19 08:23:34;;;;;;;6.43;5.82;;;22.60;55.10;;;;;;4981191;28;88789;-78
2021/10/19 08:26:01;;;;;;;6.10;5.45;;;22.60;55.10;;;;;;5012891;28;89709;-78
2021/10/19 08:28:31;;;;;;;8.68;6.57;;;22.60;55.10;;;;;;5015569;28;90383;-78
2021/10/19 08:30:58;;;;;;;5.88;5.28;;;22.60;55.10;;;;;;5016527;28;88802;-78
2021/10/19 08:33:26;;;;;;;6.38;4.88;;;22.60;55.00;;;;;;5017383;28;88540;-78
2021/10/19 08:35:53;;;;;;;6.45;5.68;;;22.60;55.00;;;;;;4998104;28;88582;-78
2021/10/19 08:38:20;;;;;;;6.47;5.82;;;22.60;55.00;;;;;;4981305;28;90340;-78
2021/10/19 08:40:48;;;;;;;6.38;4.25;;;22.60;55.00;;;;;;5011526;28;107821;-78
2021/10/19 08:43:19;;;;;;;5.47;4.45;;;22.60;55.00;;;;;;5015127;28;89205;-78
2021/10/19 08:45:48;;;;;;;7.50;5.47;;;22.60;54.90;;;;;;5020926;28;88083;-78
2021/10/19 08:48:15;;;;;;;7.00;6.30;;;22.60;54.90;;;;;;5005836;28;88484;-78
2021/10/19 08:50:42;;;;;;;5.93;5.35;;;22.60;55.00;;;;;;5017094;28;88709;-78
2021/10/19 08:53:09;;;;;;;7.60;5.40;;;22.60;55.00;;;;;;5015924;28;91097;-77
2021/10/19 08:55:36;;;;;;;5.20;4.70;;;22.60;54.90;;;;;;5017906;28;88368;-79
2021/10/19 08:58:03;;;;;;;2.42;2.22;;;22.60;54.90;;;;;;5015907;28;88358;-78
2021/10/19 09:00:30;;;;;;;6.13;5.38;;;22.60;54.90;;;;;;5016565;28;88431;-77
2021/10/19 09:02:57;;;;;;;6.55;5.57;;;22.70;54.90;;;;;;5014906;28;97155;-77
2021/10/19 09:05:27;;;;;;;5.63;4.30;;;22.70;54.90;;;;;;5014476;28;88947;-77
2021/10/19 09:08:05;;;;;;;6.60;5.93;;;22.70;54.90;;;;;;5016744;28;87994;-78
2021/10/19 09:10:35;;;;;;;2.47;2.25;;;22.70;55.00;;;;;;5015909;28;88578;-77
2021/10/19 09:13:08;;;;;;;5.80;5.05;;;22.60;54.90;;;;;;5012772;28;91120;-78
2021/10/19 09:15:37;;;;;;;5.82;5.22;;;22.70;54.90;;;;;;5015299;28;88548;-77
2021/10/19 09:18:10;;;;;;;3.63;3.33;;;22.70;54.90;;;;;;5020315;28;88110;-78
2021/10/19 09:20:40;;;;;;;4.93;4.43;;;22.70;54.90;;;;;;5005316;28;90075;-77
2021/10/19 09:23:09;;;;;;;5.40;3.92;;;22.70;54.80;;;;;;5016030;28;89061;-78
2021/10/19 09:25:38;;;;;;;5.03;4.57;;;22.70;54.80;;;;;;4997610;28;89383;-78
2021/10/19 09:28:09;;;;;;;4.65;4.25;;;22.70;54.90;;;;;;4997112;28;90827;-77
2021/10/19 09:30:49;;;;;;;4.97;4.43;;;22.70;54.80;;;;;;5017429;28;89961;-78
2021/10/19 09:33:18;;;;;;;5.82;4.00;;;22.70;54.80;;;;;;5016958;28;89099;-78
2021/10/19 09:35:49;;;;;;;4.28;3.88;;;22.70;54.80;;;;;;5015241;28;94449;-78
2021/10/19 09:38:17;;;;;;;4.20;3.80;;;22.70;54.80;;;;;;5014988;28;90209;-79
2021/10/19 09:40:53;;;;;;;4.80;4.32;;;22.70;54.80;;;;;;5015291;28;89905;-77
2021/10/19 09:43:22;;;;;;;4.70;3.80;;;22.70;54.90;;;;;;5016452;28;88188;-77
2021/10/19 09:45:53;;;;;;;4.05;3.75;;;22.70;54.90;;;;;;5014669;28;88261;-77
2021/10/19 09:48:32;;;;;;;4.85;3.47;;;22.80;54.90;;;;;;5013685;28;87789;-78
2021/10/19 09:51:00;;;;;;;4.10;3.70;;;22.80;54.80;;;;;;5012106;28;88676;-77
2021/10/19 09:53:29;;;;;;;3.85;3.55;;;22.80;54.80;;;;;;5014110;28;93162;-77
2021/10/19 09:55:58;;;;;;;4.60;3.95;;;22.80;54.80;;;;;;5011410;28;89891;-77
2021/10/19 09:58:25;;;;;;;3.97;3.53;;;22.80;54.90;;;;;;5013381;28;88477;-77
2021/10/19 10:00:53;;;;;;;3.88;3.58;;;22.80;54.90;;;;;;5014797;28;89190;-77
2021/10/19 10:03:22;;;;;;;4.40;3.85;;;22.80;54.90;;;;;;5010641;28;102380;-78
2021/10/19 10:05:49;;;;;;;4.15;3.47;;;22.80;54.90;;;;;;5014993;28;88250;-77
2021/10/19 10:08:22;;;;;;;3.13;2.47;;;22.80;54.90;;;;;;5013529;28;90856;-78
2021/10/19 10:10:57;;;;;;;3.17;2.80;;;22.80;54.90;;;;;;5017663;28;88690;-77
2021/10/19 10:13:25;;;;;;;4.32;3.85;;;22.80;54.90;;;;;;5018793;28;88922;-78
2021/10/19 10:15:52;;;;;;;2.40;1.75;;;22.90;54.90;;;;;;5018948;28;88674;-79
2021/10/19 10:18:39;;;;;;;5.03;4.05;;;22.80;54.90;;;;;;5017258;28;90354;-78
2021/10/19 10:21:19;;;;;;;4.80;4.03;;;22.90;55.00;;;;;;5001200;28;89294;-78
2021/10/19 10:23:59;;;;;;;7.15;4.28;;;22.90;55.00;;;;;;5008670;28;91810;-78
2021/10/19 10:26:28;;;;;;;5.80;4.70;;;22.80;55.00;;;;;;5017767;28;88616;-78
2021/10/19 10:29:10;;;;;;;3.05;1.75;;;22.80;55.00;;;;;;5019067;28;87988;-77
2021/10/19 10:31:47;;;;;;;3.80;3.50;;;22.80;55.00;;;;;;5019858;28;88511;-77
2021/10/19 10:34:15;;;;;;;4.45;4.05;;;22.90;55.10;;;;;;5001222;28;91215;-77
2021/10/19 10:36:47;;;;;;;4.90;4.50;;;22.80;55.10;;;;;;5014469;28;107797;-77
2021/10/19 10:39:14;;;;;;;3.47;3.10;;;22.90;55.20;;;;;;5019765;28;88211;-77
2021/10/19 10:41:44;;;;;;;2.75;2.33;;;22.80;55.10;;;;;;4998626;28;103010;-77
2021/10/19 10:44:15;;;;;;;2.97;2.67;;;22.90;55.20;;;;;;5017564;28;88954;-78
2021/10/19 10:46:42;;;;;;;3.92;3.45;;;22.90;55.10;;;;;;5017764;28;88725;-77
2021/10/19 10:49:12;;;;;;;3.90;3.50;;;22.90;55.10;;;;;;5017947;28;88025;-77
2021/10/19 10:51:42;;;;;;;4.65;2.72;;;22.90;55.10;;;;;;5016609;28;88658;-79
